Latest Weather Observations for Avalon

IDV60901

Issued at 8:21 am EDT Monday 27 January 2020 (issued every 10 minutes, with the page automatically refreshed every 10 minutes)

About weather observations | Map of Melbourne area stations | Latest observations for Melbourne area | Other Formats
Station Details ID: 087113 Name: AVALON AIRPORT Lat: -38.03 Lon: 144.48 Height: 10.6 m
Data from the previous 72 hours. | See also: Recent months at Avalon
Date/Time
EDT
Temp
°C
App
Temp
°C
Dew
Point
°C
Rel
Hum
%
Delta-T
°C
Wind Press
QNH
hPa
Press
MSL
hPa
Rain since
9am
mm
Dir  Spd
km/h
Gust
km/h
Spd
kts
Gust
kts
27/08:00am 14.1 14.0 13.9 99 0.1 NW 7 9 4 5 1014.9 1014.9 0.0
27/07:30am 12.8 12.0 12.8 100 0.0 NNW 9 11 5 6 1014.7 1014.7 0.0
27/07:00am 12.2 11.6 12.2 100 0.0 WNW 7 9 4 5 1015.0 1015.0 0.0
27/06:30am 12.1 11.4 11.9 99 0.1 WNW 7 9 4 5 1014.8 1014.8 0.0
27/06:00am 11.7 10.8 11.5 99 0.1 WNW 7 9 4 5 1014.7 1014.7 0.0
27/05:30am 12.2 11.5 12.0 99 0.1 W 7 9 4 5 1014.5 1014.5 0.0
27/05:00am 12.3 11.2 12.1 99 0.1 NNW 9 11 5 6 1014.1 1014.1 0.0
27/04:30am 12.6 11.5 12.0 96 0.3 NNW 9 11 5 6 1014.2 1014.2 0.0
27/04:00am 13.4 13.9 11.6 89 1.0 CALM 0 0 0 0 1014.4 1014.4 0.0
27/03:30am 14.5 15.2 12.2 86 1.2 CALM 0 0 0 0 1014.7 1014.7 0.0
27/03:00am 15.3 16.1 12.4 83 1.6 CALM 0 0 0 0 1014.9 1014.9 0.0
27/02:30am 16.0 15.4 12.4 79 2.0 NNE 7 15 4 8 1015.0 1015.0 0.0
27/02:00am 16.9 17.7 12.4 75 2.5 CALM 0 6 0 3 1015.4 1015.4 0.0
27/01:30am 17.4 16.9 12.5 73 2.7 ENE 7 9 4 5 1015.7 1015.7 0.0
27/01:00am 17.4 17.1 12.7 74 2.6 E 6 9 3 5 1016.4 1016.4 0.0
27/12:30am 17.3 16.5 12.8 75 2.5 ESE 9 13 5 7 1016.8 1016.8 0.0
27/12:00am 17.3 16.4 12.6 74 2.6 SE 9 15 5 8 1016.9 1016.9 0.0
 
Date/Time
EDT
Temp
°C
App
Temp
°C
Dew
Point
°C
Rel
Hum
%
Delta-T
°C
Wind Press
QNH
hPa
Press
MSL
hPa
Rain since
9am
mm
Dir  Spd
km/h
Gust
km/h
Spd
kts
Gust
kts
26/11:30pm 17.3 16.4 12.6 74 2.6 SSE 9 13 5 7 1016.7 1016.7 0.0
26/11:00pm 17.3 15.6 12.6 74 2.6 SSE 13 15 7 8 1016.9 1016.9 0.0
26/10:30pm 17.2 14.8 12.5 74 2.6 SSE 17 19 9 10 1016.6 1016.6 0.0
26/10:00pm 17.4 14.9 12.3 72 2.8 S 17 26 9 14 1016.9 1016.9 0.0
26/09:30pm 17.2 14.3 12.3 73 2.7 SSE 19 24 10 13 1016.2 1016.2 0.0
26/09:00pm 17.3 14.3 12.4 73 2.7 S 20 26 11 14 1016.0 1016.0 0.0
26/08:30pm 17.7 13.7 13.0 74 2.6 S 26 32 14 17 1016.4 1016.4 0.0
26/08:00pm 17.9 14.9 13.6 76 2.4 S 22 30 12 16 1015.7 1015.7 0.0
26/07:30pm 18.4 15.3 13.5 73 2.8 S 22 28 12 15 1015.1 1015.1 0.0
26/07:00pm 19.0 15.2 13.6 71 3.1 S 26 33 14 18 1014.6 1014.6 0.0
26/06:30pm 19.5 15.8 13.9 70 3.2 S 26 33 14 18 1014.2 1014.2 0.0
26/06:00pm 19.7 16.4 13.9 69 3.3 S 24 32 13 17 1014.0 1014.0 0.0
26/05:30pm 21.9 18.3 14.3 62 4.4 S 26 32 14 17 1014.0 1014.0 0.0
26/05:00pm 22.0 18.4 14.1 61 4.6 SSE 26 33 14 18 1014.0 1014.0 0.0
26/04:30pm 21.9 19.3 15.0 65 4.1 SE 22 30 12 16 1013.8 1013.8 0.0
26/04:00pm 23.4 23.2 16.7 66 4.1 ESE 13 20 7 11 1013.8 1013.8 0.0
26/03:30pm 23.4 24.5 16.7 66 4.1 ENE 6 11 3 6 1014.0 1014.0 0.0
26/03:00pm 22.6 22.4 16.6 69 3.7 SE 13 20 7 11 1014.2 1014.2 0.0
26/02:30pm 21.8 21.9 15.6 68 3.7 SSE 9 19 5 10 1014.4 1014.4 0.0
26/02:00pm 20.2 18.6 16.4 79 2.3 SSE 20 26 11 14 1014.6 1014.6 0.0
26/01:30pm 19.8 16.3 16.4 81 2.0 S 30 39 16 21 1014.7 1014.7 0.0
26/01:00pm 21.3 19.5 15.6 70 3.4 WSW 19 28 10 15 1014.6 1014.6 0.0
26/12:30pm 21.3 19.0 15.8 71 3.3 WSW 22 30 12 16 1014.7 1014.7 0.0
26/12:00pm 21.2 19.2 15.5 70 3.4 WSW 20 28 11 15 1014.4 1014.4 0.0
26/11:30am 23.2 21.2 16.5 66 4.1 W 22 32 12 17 1014.1 1014.1 0.0
26/11:00am 21.3 18.3 15.8 71 3.3 SW 26 35 14 19 1014.2 1014.2 0.0
26/10:30am 22.0 20.7 16.7 72 3.2 W 19 30 10 16 1014.0 1014.0 0.0
26/10:00am 21.0 20.6 17.2 79 2.3 WSW 15 22 8 12 1014.0 1014.0 0.0
26/09:30am 19.4 19.5 16.4 83 1.8 WSW 11 19 6 10 1014.0 1014.0 0.0
26/09:00am 18.7 19.8 17.2 91 0.9 NW 7 11 4 6 1013.7 1013.7 0.0
26/08:30am 17.1 17.1 17.1 100 0.0 NW 13 15 7 8 1013.2 1013.2 0.0
26/08:05am 16.0 15.9 16.0 100 0.0 WNW 11 13 6 7 1013.2 1013.2 0.0
26/08:00am 15.5 15.2 15.5 100 0.0 WNW 11 15 6 8 1013.1 1013.1 0.0
26/07:58am 15.5 15.2 15.5 100 0.0 WNW 11 15 6 8 1013.1 1013.1 0.0
26/07:30am 14.6 13.6 14.6 100 0.0 NW 13 15 7 8 1013.3 1013.3 0.0
26/07:15am 14.3 12.4 14.3 100 0.0 WNW 17 20 9 11 1013.6 1013.6 0.0
26/07:13am 14.2 12.3 14.2 100 0.0 WNW 17 20 9 11 1013.7 1013.7 0.0
26/07:00am 14.5 13.5 14.5 100 0.0 NW 13 15 7 8 1013.6 1013.6 0.0
26/06:30am 14.2 13.8 14.2 100 0.0 WNW 9 13 5 7 1013.2 1013.2 0.0
26/06:00am 14.0 13.6 14.0 100 0.0 NW 9 11 5 6 1012.8 1012.8 0.0
26/05:30am 14.7 14.5 14.7 100 0.0 WNW 9 11 5 6 1012.5 1012.5 0.0
26/05:00am 14.8 16.0 14.8 100 0.0 WNW 2 9 1 5 1012.5 1012.5 0.0
26/04:30am 14.5 15.9 14.5 100 0.0 CALM 0 0 0 0 1012.4 1012.4 0.0
26/04:00am 14.5 14.6 14.5 100 0.0 WSW 7 11 4 6 1012.5 1012.5 0.0
26/03:30am 14.7 14.9 14.7 100 0.0 W 7 9 4 5 1012.6 1012.6 0.0
26/03:00am 15.2 15.8 15.2 100 0.0 W 6 7 3 4 1012.7 1012.7 0.0
26/02:30am 15.3 15.9 15.3 100 0.0 WNW 6 7 3 4 1012.7 1012.7 0.0
26/02:00am 15.5 15.6 15.5 100 0.0 NW 9 11 5 6 1012.9 1012.9 0.0
26/01:30am 15.4 15.8 15.2 99 0.1 NW 7 9 4 5 1013.2 1013.2 0.0
26/01:00am 15.8 15.9 15.6 99 0.1 W 9 9 5 5 1013.4 1013.4 0.0
26/12:30am 16.1 16.8 15.5 96 0.3 NW 6 7 3 4 1013.5 1013.5 0.0
26/12:00am 16.6 18.5 15.8 95 0.5 CALM 0 0 0 0 1013.6 1013.6 0.0
 
Date/Time
EDT
Temp
°C
App
Temp
°C
Dew
Point
°C
Rel
Hum
%
Delta-T
°C
Wind Press
QNH
hPa
Press
MSL
hPa
Rain since
9am
mm
Dir  Spd
km/h
Gust
km/h
Spd
kts
Gust
kts
25/11:30pm 16.9 18.4 15.6 92 0.8 NNE 2 7 1 4 1013.9 1013.9 0.0
25/11:00pm 17.3 18.5 16.0 92 0.8 SE 4 6 2 3 1014.1 1014.1 0.0
25/10:30pm 17.0 17.5 15.5 91 0.9 SE 7 11 4 6 1014.4 1014.4 0.0
25/10:00pm 17.1 17.1 15.3 89 1.0 SSE 9 13 5 7 1014.3 1014.3 0.0
25/09:30pm 17.8 17.0 15.2 85 1.5 S 13 15 7 8 1014.0 1014.0 0.0
25/09:00pm 18.2 18.1 14.9 81 1.9 S 9 13 5 7 1013.5 1013.5 0.0
25/08:30pm 19.3 18.8 14.8 75 2.6 SSE 11 15 6 8 1013.1 1013.1 0.0
25/08:00pm 20.2 18.1 14.8 71 3.2 S 19 24 10 13 1012.8 1012.8 0.0
25/07:30pm 21.0 18.3 14.6 67 3.7 S 22 28 12 15 1012.5 1012.5 0.0
25/07:00pm 21.5 18.0 14.4 64 4.2 S 26 33 14 18 1012.1 1012.1 0.0
25/06:30pm 22.1 18.1 14.2 61 4.6 S 28 33 15 18 1012.0 1012.0 0.0
25/06:00pm 23.4 20.1 14.9 59 5.1 SSE 26 32 14 17 1011.9 1011.9 0.0
25/05:30pm 23.5 19.6 14.5 57 5.3 SSE 28 35 15 19 1012.2 1012.2 0.0
25/05:00pm 25.1 21.9 15.4 55 5.9 SE 26 32 14 17 1012.2 1012.2 0.0
25/04:30pm 24.6 21.7 12.9 48 6.8 SE 20 26 11 14 1012.1 1012.1 0.0
25/04:00pm 24.9 22.1 14.4 52 6.2 ESE 22 30 12 16 1011.9 1011.9 0.0
25/03:30pm 24.2 20.4 15.7 59 5.1 ESE 30 39 16 21 1012.2 1012.2 0.0
25/03:00pm 27.9 25.5 12.7 39 8.9 WSW 17 22 9 12 1012.3 1012.3 0.0
25/02:30pm 27.3 23.9 11.3 37 9.1 W 20 32 11 17 1012.5 1012.5 0.0
25/02:00pm 27.5 25.0 11.1 36 9.3 WNW 15 30 8 16 1012.8 1012.8 0.0
25/01:30pm 26.4 22.9 12.1 41 8.2 W 22 32 12 17 1013.2 1013.2 0.0
25/01:00pm 26.3 24.1 12.0 41 8.2 WNW 15 28 8 15 1013.3 1013.3 0.0
25/12:30pm 25.2 22.5 11.7 43 7.7 WNW 17 28 9 15 1013.4 1013.4 0.0
25/12:00pm 24.5 22.6 11.8 45 7.2 NW 13 24 7 13 1013.6 1013.6 0.0
25/11:30am 24.7 23.0 12.6 47 7.0 NW 13 20 7 11 1013.8 1013.8 0.0
25/11:00am 22.3 18.9 11.4 50 6.1 WNW 20 30 11 16 1014.2 1014.2 0.0
25/10:30am 22.4 20.6 12.1 52 5.8 WNW 13 26 7 14 1014.3 1014.3 0.0
25/10:00am 21.2 18.9 12.9 59 4.7 W 17 22 9 12 1014.6 1014.6 0.0
25/09:30am 20.3 17.6 12.8 62 4.2 WSW 19 26 10 14 1014.8 1014.8 0.0
25/09:00am 19.5 18.8 13.2 67 3.6 WNW 9 15 5 8 1014.8 1014.8 0.0
25/08:30am 18.3 18.9 13.2 72 2.9 NE 2 6 1 3 1014.6 1014.6 0.0
25/08:00am 16.1 15.9 13.0 82 1.7 NE 6 9 3 5 1014.1 1014.1 0.0
25/07:30am 14.8 15.6 12.7 87 1.2 CALM 0 0 0 0 1013.9 1013.9 0.0
25/07:00am 13.5 12.7 13.0 97 0.3 ENE 9 13 5 7 1013.8 1013.8 0.0
25/06:30am 13.1 12.9 12.9 99 0.1 NE 6 9 3 5 1013.6 1013.6 0.0
25/06:00am 12.6 11.6 12.3 98 0.2 NE 9 11 5 6 1013.4 1013.4 0.0
25/05:30am 13.2 12.3 12.7 97 0.3 WSW 9 13 5 7 1013.3 1013.3 0.0
25/05:00am 13.1 11.9 12.9 99 0.1 WNW 11 11 6 6 1013.5 1013.5 0.0
25/04:30am 13.5 12.0 13.0 97 0.3 W 13 13 7 7 1013.5 1013.5 0.0
25/04:00am 14.4 13.7 13.3 93 0.6 WNW 9 11 5 6 1013.7 1013.7 0.0
25/03:30am 14.4 14.0 14.1 98 0.2 WNW 9 11 5 6 1013.7 1013.7 0.0
25/03:00am 14.3 14.5 14.1 99 0.1 NW 6 7 3 4 1013.6 1013.6 0.0
25/02:30am 14.2 14.0 13.7 97 0.3 NW 7 9 4 5 1013.6 1013.6 0.0
25/02:00am 15.0 14.6 14.0 94 0.6 W 9 13 5 7 1013.7 1013.7 0.0
25/01:30am 16.3 15.6 15.5 95 0.5 WNW 13 17 7 9 1013.6 1013.6 0.0
25/01:00am 16.3 15.3 14.7 90 0.9 WSW 13 15 7 8 1013.6 1013.6 0.0
25/12:30am 17.5 15.3 12.2 71 2.9 WNW 15 19 8 10 1013.3 1013.3 0.0
25/12:00am 18.1 16.3 10.7 62 4.0 NW 11 15 6 8 1013.2 1013.2 0.0
 
Date/Time
EDT
Temp
°C
App
Temp
°C
Dew
Point
°C
Rel
Hum
%
Delta-T
°C
Wind Press
QNH
hPa
Press
MSL
hPa
Rain since
9am
mm
Dir  Spd
km/h
Gust
km/h
Spd
kts
Gust
kts
24/11:30pm 17.7 16.0 11.3 66 3.5 NNW 11 13 6 7 1013.1 1013.1 0.0
24/11:00pm 17.7 16.3 11.0 65 3.6 N 9 9 5 5 1013.0 1013.0 0.0
24/10:30pm 17.8 16.3 10.7 63 3.8 N 9 11 5 6 1013.0 1013.0 0.0
24/10:00pm 18.3 16.8 10.7 61 4.1 NNW 9 9 5 5 1012.9 1012.9 0.0
24/09:30pm 18.6 17.0 10.2 58 4.5 N 9 11 5 6 1012.6 1012.6 0.0
24/09:00pm 19.3 17.6 9.8 54 5.1 NNW 9 13 5 7 1012.2 1012.2 0.0
24/08:30pm 21.1 19.0 9.7 48 6.1 NW 11 15 6 8 1012.2 1012.2 0.0
24/08:00pm 21.6 17.9 9.5 46 6.5 WNW 19 24 10 13 1012.1 1012.1 0.0
24/07:30pm 21.9 17.2 9.4 45 6.7 WNW 24 30 13 16 1011.8 1011.8 0.0
24/07:00pm 22.4 18.1 9.2 43 7.1 WNW 22 30 12 16 1011.5 1011.5 0.0
24/06:30pm 22.5 17.4 9.3 43 7.1 WNW 26 35 14 19 1011.3 1011.3 0.0
24/06:00pm 23.1 17.7 9.5 42 7.4 WNW 28 33 15 18 1011.3 1011.3 0.0
24/05:30pm 22.5 17.2 10.0 45 6.8 WNW 28 33 15 18 1011.3 1011.3 0.0
24/05:00pm 22.6 17.4 9.0 42 7.3 WNW 26 43 14 23 1011.3 1011.3 0.0
24/04:30pm 23.1 17.9 8.8 40 7.6 WNW 26 43 14 23 1011.2 1011.2 0.0
24/04:00pm 22.9 17.6 10.0 44 7.0 WNW 28 39 15 21 1011.6 1011.6 0.0
24/03:30pm 23.9 18.2 9.9 41 7.7 WNW 30 43 16 23 1011.7 1011.7 0.0
24/03:00pm 20.8 16.4 9.1 47 6.2 NNW 22 30 12 16 1011.9 1011.9 0.0
24/02:30pm 20.8 16.2 9.7 49 6.0 WNW 24 33 13 18 1012.1 1012.1 0.0
24/02:00pm 20.4 15.2 8.7 47 6.1 NW 26 33 14 18 1012.1 1012.1 0.0
24/01:30pm 20.6 16.0 9.5 49 5.9 WNW 24 32 13 17 1012.0 1012.0 0.0
24/01:00pm 20.0 14.9 9.3 50 5.7 WNW 26 35 14 19 1012.3 1012.3 0.0
24/12:30pm 20.0 14.5 9.0 49 5.8 NW 28 41 15 22 1012.1 1012.1 0.0
24/12:00pm 20.0 14.0 8.7 48 5.9 NW 30 44 16 24 1012.0 1012.0 0.0
24/11:30am 20.1 15.0 10.5 54 5.2 WNW 28 35 15 19 1012.0 1012.0 0.0
24/11:00am 19.4 13.3 9.6 53 5.2 WNW 32 44 17 24 1011.6 1011.6 0.0
24/10:30am 18.6 13.1 9.1 54 5.0 WNW 28 39 15 21 1011.4 1011.4 0.0
24/10:00am 18.4 12.5 10.3 59 4.3 WNW 32 44 17 24 1011.2 1011.2 0.0
24/09:30am 17.6 11.6 10.2 62 3.9 WNW 32 41 17 22 1010.8 1010.8 0.0
24/09:00am 17.1 11.0 9.8 62 3.8 WNW 32 41 17 22 1010.3 1010.3 1.0
24/08:30am 16.1 10.2 9.1 63 3.6 WNW 30 39 16 21 1010.0 1010.0 1.0

Latest Capital City Observations: Canberra | Sydney | Melbourne | Brisbane | Adelaide | Perth | Hobart | Darwin

Other formats

Comma delimited format used in spreadsheet applications
http://www.bom.gov.au/fwo/IDV60901/IDV60901.94854.axf

JavaScript Object Notation format (JSON) in row-major order
http://www.bom.gov.au/fwo/IDV60901/IDV60901.94854.json

Data quality

Most of these data are generated automatically and are frequently updated. Quality checks on data are not normally performed. It is possible for incorrect values to appear. Refer to information at About Latest Weather Observations and please check the disclaimer before using these data.